createdAt,value
2022-12-31T00:00:07.926Z,100.00
2022-12-31T00:02:34.728Z,100.00
2022-12-31T00:05:01.389Z,100.00
2022-12-31T00:07:28.086Z,100.00
2022-12-31T00:09:54.695Z,100.00
2022-12-31T00:12:21.301Z,100.00
2022-12-31T00:14:48.016Z,100.00
2022-12-31T00:17:14.699Z,100.00
2022-12-31T00:19:41.351Z,100.00
2022-12-31T00:22:07.960Z,100.00
2022-12-31T00:24:35.966Z,100.00
2022-12-31T00:27:02.846Z,100.00
2022-12-31T00:29:29.404Z,100.00
2022-12-31T00:31:56.059Z,100.00
2022-12-31T00:34:22.699Z,100.00
2022-12-31T00:36:49.395Z,100.00
2022-12-31T00:39:16.115Z,100.00
2022-12-31T00:41:44.239Z,100.00
2022-12-31T00:44:14.368Z,100.00
2022-12-31T00:49:07.369Z,100.00
2022-12-31T00:51:34.143Z,100.00
2022-12-31T00:54:00.724Z,100.00
2022-12-31T00:56:29.628Z,100.00
2022-12-31T00:58:56.380Z,100.00
2022-12-31T01:01:26.101Z,100.00
2022-12-31T01:03:55.451Z,100.00
2022-12-31T01:06:22.696Z,100.00
2022-12-31T01:08:50.571Z,100.00
2022-12-31T01:11:22.242Z,100.00
2022-12-31T01:14:13.122Z,100.00
2022-12-31T01:16:46.513Z,100.00
2022-12-31T01:19:25.438Z,100.00
2022-12-31T01:21:52.507Z,100.00
2022-12-31T01:24:19.636Z,100.00
2022-12-31T01:26:46.979Z,100.00
2022-12-31T01:29:14.753Z,100.00
2022-12-31T01:31:41.455Z,100.00
2022-12-31T01:34:08.739Z,100.00
2022-12-31T01:36:37.298Z,100.00
2022-12-31T01:39:05.877Z,100.00
2022-12-31T01:41:38.662Z,100.00
2022-12-31T01:44:11.397Z,100.00
2022-12-31T01:46:58.895Z,100.00
2022-12-31T01:49:38.024Z,100.00
2022-12-31T01:52:12.947Z,100.00
2022-12-31T01:54:44.194Z,100.00
2022-12-31T01:57:11.918Z,100.00
2022-12-31T01:59:38.714Z,100.00
2022-12-31T02:02:05.946Z,100.00
2022-12-31T02:04:32.807Z,100.00
2022-12-31T02:07:02.402Z,100.00
2022-12-31T02:09:30.398Z,100.00
2022-12-31T02:11:57.189Z,100.00
2022-12-31T02:14:36.677Z,100.00
2022-12-31T02:17:31.005Z,100.00
2022-12-31T02:20:06.620Z,100.00
2022-12-31T02:22:54.926Z,100.00
2022-12-31T02:25:36.945Z,100.00
2022-12-31T02:28:09.349Z,100.00
2022-12-31T02:30:37.314Z,100.00
2022-12-31T02:33:16.869Z,100.00
2022-12-31T02:35:46.686Z,100.00
2022-12-31T02:38:19.807Z,100.00
2022-12-31T02:40:47.396Z,100.00
2022-12-31T02:43:14.414Z,100.00
2022-12-31T02:45:45.480Z,100.00
2022-12-31T02:48:37.340Z,100.00
2022-12-31T02:51:19.156Z,100.00
2022-12-31T02:53:53.821Z,100.00
2022-12-31T02:56:31.001Z,100.00
2022-12-31T02:59:22.094Z,100.00
2022-12-31T03:02:13.553Z,100.00
2022-12-31T03:04:55.823Z,100.00
2022-12-31T03:07:25.236Z,100.00
2022-12-31T03:09:52.691Z,100.00
2022-12-31T03:12:42.086Z,100.00
2022-12-31T03:15:20.163Z,100.00
2022-12-31T03:18:17.466Z,100.00
2022-12-31T03:21:07.074Z,100.00
2022-12-31T03:23:36.288Z,100.00
2022-12-31T03:26:10.870Z,100.00
2022-12-31T03:28:39.788Z,100.00
2022-12-31T03:31:06.631Z,100.00
2022-12-31T03:33:35.886Z,100.00
2022-12-31T03:36:09.182Z,100.00
2022-12-31T03:38:36.284Z,100.00
2022-12-31T03:41:03.488Z,100.00
2022-12-31T03:43:30.111Z,100.00
2022-12-31T03:45:59.762Z,100.00
2022-12-31T03:48:26.561Z,100.00
2022-12-31T03:50:53.223Z,100.00
2022-12-31T03:53:20.442Z,100.00
2022-12-31T03:55:53.880Z,100.00
2022-12-31T03:58:21.143Z,100.00
2022-12-31T04:00:47.795Z,100.00
2022-12-31T04:03:14.486Z,100.00
2022-12-31T04:05:41.258Z,100.00
2022-12-31T04:08:07.892Z,100.00
2022-12-31T04:10:34.568Z,100.00
2022-12-31T04:13:04.404Z,100.00
2022-12-31T04:15:31.009Z,100.00
2022-12-31T04:17:57.617Z,100.00
2022-12-31T04:20:24.206Z,100.00
2022-12-31T04:22:50.771Z,100.00
2022-12-31T04:25:17.468Z,100.00
2022-12-31T04:27:44.185Z,100.00
2022-12-31T04:30:12.468Z,100.00
2022-12-31T04:32:39.134Z,100.00
2022-12-31T04:35:06.368Z,100.00
2022-12-31T04:37:32.986Z,100.00
2022-12-31T04:40:05.483Z,100.00
2022-12-31T04:42:33.154Z,100.00
2022-12-31T04:44:59.755Z,100.00
2022-12-31T04:47:26.442Z,100.00
2022-12-31T04:49:53.114Z,100.00
2022-12-31T04:52:19.639Z,100.00
2022-12-31T04:54:46.268Z,100.00
2022-12-31T04:57:12.878Z,100.00
2022-12-31T04:59:39.522Z,100.00
2022-12-31T05:02:06.364Z,100.00
2022-12-31T05:04:33.175Z,100.00
2022-12-31T05:06:59.792Z,100.00
2022-12-31T05:09:28.309Z,100.00
2022-12-31T05:11:55.012Z,100.00
2022-12-31T05:14:21.667Z,100.00
2022-12-31T05:16:48.316Z,100.00
2022-12-31T05:19:15.236Z,100.00
2022-12-31T05:21:41.807Z,100.00
2022-12-31T05:24:08.432Z,100.00
2022-12-31T05:26:35.431Z,100.00
2022-12-31T05:29:02.008Z,100.00
2022-12-31T05:31:28.723Z,100.00
2022-12-31T05:33:55.285Z,100.00
2022-12-31T05:36:21.939Z,100.00
2022-12-31T05:38:48.536Z,100.00
2022-12-31T05:41:15.135Z,100.00
2022-12-31T05:43:41.713Z,100.00
2022-12-31T05:46:08.709Z,100.00
2022-12-31T05:48:35.393Z,100.00
2022-12-31T05:51:02.022Z,100.00
2022-12-31T05:53:28.576Z,100.00
2022-12-31T05:55:55.201Z,100.00
2022-12-31T05:58:21.832Z,100.00
2022-12-31T06:00:48.434Z,100.00
2022-12-31T06:03:15.080Z,100.00
2022-12-31T06:05:43.168Z,100.00
2022-12-31T06:08:11.323Z,100.00
2022-12-31T06:10:38.301Z,100.00
2022-12-31T06:13:05.126Z,100.00
2022-12-31T06:15:32.159Z,100.00
2022-12-31T06:17:58.832Z,100.00
2022-12-31T06:20:25.511Z,100.00
2022-12-31T06:22:52.133Z,100.00
2022-12-31T06:25:19.146Z,100.00
2022-12-31T06:27:45.816Z,100.00
2022-12-31T06:30:13.025Z,100.00
2022-12-31T06:32:40.765Z,100.00
2022-12-31T06:35:08.376Z,100.00
2022-12-31T06:37:35.163Z,100.00
2022-12-31T06:40:01.838Z,100.00
2022-12-31T06:42:31.003Z,100.00
2022-12-31T06:44:59.100Z,100.00
2022-12-31T06:47:26.186Z,100.00
2022-12-31T06:49:53.285Z,100.00
2022-12-31T06:52:20.324Z,100.00
2022-12-31T06:54:47.273Z,100.00
2022-12-31T06:57:14.174Z,100.00
2022-12-31T06:59:41.037Z,100.00
2022-12-31T07:02:36.566Z,100.00
2022-12-31T07:05:14.006Z,100.00
2022-12-31T07:08:02.283Z,100.00
2022-12-31T07:10:59.938Z,100.00
2022-12-31T07:13:58.667Z,100.00
2022-12-31T07:16:46.999Z,100.00
2022-12-31T07:19:27.859Z,100.00
2022-12-31T07:21:58.294Z,100.00
2022-12-31T07:24:25.278Z,100.00
2022-12-31T07:27:19.694Z,100.00
2022-12-31T07:30:04.538Z,100.00
2022-12-31T07:33:12.889Z,100.00
2022-12-31T07:36:03.659Z,100.00
2022-12-31T07:38:42.698Z,100.00
2022-12-31T07:41:36.736Z,100.00
2022-12-31T07:44:51.210Z,99.79
2022-12-31T07:47:25.049Z,98.64
2022-12-31T07:49:52.338Z,97.63
2022-12-31T07:52:20.127Z,96.72
2022-12-31T07:54:47.015Z,95.73
2022-12-31T07:57:15.751Z,94.76
2022-12-31T07:59:57.415Z,95.34
2022-12-31T08:02:55.134Z,95.34
2022-12-31T08:05:21.787Z,95.15
2022-12-31T08:07:54.276Z,94.31
2022-12-31T08:10:37.878Z,92.20
2022-12-31T08:13:10.280Z,92.26
2022-12-31T08:15:40.889Z,89.42
2022-12-31T08:18:08.181Z,86.81
2022-12-31T08:20:47.753Z,85.65
2022-12-31T08:23:36.834Z,83.45
2022-12-31T08:26:09.073Z,81.01
2022-12-31T08:28:56.686Z,80.71
2022-12-31T08:32:03.109Z,80.18
2022-12-31T08:34:38.938Z,81.70
2022-12-31T08:37:12.461Z,82.17
2022-12-31T08:40:07.019Z,76.72
2022-12-31T08:42:42.563Z,80.06
2022-12-31T08:45:33.565Z,81.53
2022-12-31T08:48:18.181Z,80.86
2022-12-31T08:50:45.159Z,80.93
2022-12-31T08:53:12.048Z,77.80
2022-12-31T08:55:39.876Z,75.40
2022-12-31T08:58:25.008Z,73.94
2022-12-31T09:00:56.695Z,71.54
2022-12-31T09:03:28.265Z,70.07
2022-12-31T09:06:19.480Z,70.82
2022-12-31T09:08:58.871Z,71.37
2022-12-31T09:11:57.665Z,73.74
2022-12-31T09:14:56.492Z,72.96
2022-12-31T09:17:23.060Z,67.81
2022-12-31T09:19:50.014Z,64.13
2022-12-31T09:22:17.209Z,63.98
2022-12-31T09:24:44.076Z,62.17
2022-12-31T09:27:31.346Z,62.85
2022-12-31T09:30:11.461Z,58.41
2022-12-31T09:32:48.012Z,56.93
2022-12-31T09:35:30.569Z,55.49
2022-12-31T09:38:52.578Z,55.65
2022-12-31T09:42:03.665Z,61.43
2022-12-31T09:45:08.496Z,60.11
2022-12-31T09:47:56.739Z,54.80
2022-12-31T09:51:00.170Z,54.71
2022-12-31T09:53:41.134Z,57.97
2022-12-31T09:56:16.491Z,55.17
2022-12-31T09:59:06.027Z,53.69
2022-12-31T10:01:38.492Z,52.68
2022-12-31T10:04:24.967Z,51.45
2022-12-31T10:07:04.832Z,52.44
2022-12-31T10:10:01.538Z,50.05
2022-12-31T10:13:13.297Z,48.89
2022-12-31T10:16:00.329Z,48.68
2022-12-31T10:19:01.141Z,49.96
2022-12-31T10:21:59.210Z,53.34
2022-12-31T10:24:35.009Z,49.32
2022-12-31T10:27:49.224Z,44.47
2022-12-31T10:30:24.160Z,49.29
2022-12-31T10:33:15.539Z,50.54
2022-12-31T10:35:58.652Z,46.38
2022-12-31T10:39:00.280Z,43.20
2022-12-31T10:42:03.741Z,42.97
2022-12-31T10:44:57.984Z,42.52
2022-12-31T10:47:33.218Z,42.42
2022-12-31T10:50:36.129Z,39.63
2022-12-31T10:53:40.195Z,39.41
2022-12-31T10:56:16.063Z,37.73
2022-12-31T10:59:03.394Z,37.65
2022-12-31T11:01:44.974Z,37.93
2022-12-31T11:04:50.591Z,38.99
2022-12-31T11:07:34.198Z,37.68
2022-12-31T11:10:00.703Z,37.85
2022-12-31T11:13:10.192Z,36.61
2022-12-31T11:16:08.961Z,36.10
2022-12-31T11:19:12.178Z,37.24
2022-12-31T11:22:12.702Z,34.95
2022-12-31T11:25:16.657Z,33.06
2022-12-31T11:28:20.171Z,32.65
2022-12-31T11:30:55.934Z,34.31
2022-12-31T11:33:45.354Z,36.29
2022-12-31T11:36:40.975Z,36.32
2022-12-31T11:39:27.257Z,35.91
2022-12-31T11:42:13.553Z,33.47
2022-12-31T11:44:52.069Z,35.93
2022-12-31T11:48:03.931Z,37.94
2022-12-31T11:50:29.197Z,34.51
2022-12-31T11:53:23.944Z,34.35
2022-12-31T11:56:02.692Z,34.41
2022-12-31T11:58:30.060Z,34.71
2022-12-31T12:01:00.877Z,34.35
2022-12-31T12:03:27.875Z,34.32
2022-12-31T12:05:57.108Z,37.15
2022-12-31T12:08:26.625Z,34.97
2022-12-31T12:11:08.770Z,35.16
2022-12-31T12:13:35.616Z,34.95
2022-12-31T12:16:06.302Z,33.12
2022-12-31T12:18:51.849Z,33.36
2022-12-31T12:21:22.268Z,35.26
2022-12-31T12:23:58.993Z,36.34
2022-12-31T12:26:39.770Z,36.13
2022-12-31T12:29:16.458Z,38.23
2022-12-31T12:31:54.008Z,39.81
2022-12-31T12:34:49.157Z,37.88
2022-12-31T12:37:28.121Z,37.21
2022-12-31T12:39:57.794Z,37.29
2022-12-31T12:42:24.418Z,35.33
2022-12-31T12:45:06.447Z,34.68
2022-12-31T12:47:33.629Z,36.90
2022-12-31T12:50:00.646Z,36.69
2022-12-31T12:52:51.889Z,37.18
2022-12-31T12:55:39.699Z,36.67
2022-12-31T12:58:41.600Z,37.06
2022-12-31T13:01:25.307Z,38.01
2022-12-31T13:04:36.208Z,36.73
2022-12-31T13:07:02.821Z,38.66
2022-12-31T13:09:32.342Z,39.30
2022-12-31T13:12:19.147Z,39.52
2022-12-31T13:14:52.018Z,39.83
2022-12-31T13:17:54.075Z,37.57
2022-12-31T13:20:53.710Z,36.17
2022-12-31T13:23:39.458Z,37.24
2022-12-31T13:26:28.128Z,36.74
2022-12-31T13:28:56.056Z,37.31
2022-12-31T13:31:30.343Z,37.58
2022-12-31T13:34:02.261Z,36.35
2022-12-31T13:36:32.793Z,37.08
2022-12-31T13:39:02.309Z,39.85
2022-12-31T13:41:42.128Z,42.76
2022-12-31T13:44:08.637Z,45.79
2022-12-31T13:46:47.506Z,50.26
2022-12-31T13:49:37.229Z,52.82
2022-12-31T13:52:15.993Z,54.76
2022-12-31T13:54:58.511Z,56.80
2022-12-31T13:57:33.848Z,58.53
2022-12-31T14:00:17.387Z,60.07
2022-12-31T14:03:10.391Z,62.37
2022-12-31T14:05:58.696Z,65.02
2022-12-31T14:08:25.297Z,66.00
2022-12-31T14:11:25.895Z,66.79
2022-12-31T14:14:22.949Z,68.24
2022-12-31T14:16:53.324Z,69.23
2022-12-31T14:20:01.725Z,69.59
2022-12-31T14:22:37.038Z,70.64
2022-12-31T14:25:15.583Z,72.55
2022-12-31T14:27:45.207Z,73.35
2022-12-31T14:30:25.946Z,74.99
2022-12-31T14:33:14.406Z,75.46
2022-12-31T14:36:01.043Z,76.09
2022-12-31T14:38:44.204Z,76.45
2022-12-31T14:41:35.591Z,77.54
2022-12-31T14:44:20.940Z,77.98
2022-12-31T14:47:07.487Z,79.38
2022-12-31T14:49:50.216Z,79.84
2022-12-31T14:52:21.784Z,80.60
2022-12-31T14:55:09.977Z,80.92
2022-12-31T14:58:09.678Z,81.44
2022-12-31T15:00:30.577Z,82.09
2022-12-31T15:03:04.451Z,82.43
2022-12-31T15:05:37.580Z,83.15
2022-12-31T15:08:13.435Z,83.51
2022-12-31T15:11:19.333Z,84.19
2022-12-31T15:13:57.980Z,84.69
2022-12-31T15:16:27.429Z,85.72
2022-12-31T15:19:18.975Z,86.76
2022-12-31T15:21:59.024Z,87.23
2022-12-31T15:24:28.076Z,87.95
2022-12-31T15:26:58.490Z,88.09
2022-12-31T15:29:27.787Z,88.58
2022-12-31T15:31:56.083Z,88.92
2022-12-31T15:34:36.738Z,89.52
2022-12-31T15:37:27.149Z,90.84
2022-12-31T15:40:07.387Z,92.09
2022-12-31T15:42:49.537Z,92.20
2022-12-31T15:45:31.289Z,92.09
2022-12-31T15:48:00.951Z,92.28
2022-12-31T15:50:29.185Z,92.46
2022-12-31T15:52:59.957Z,92.28
2022-12-31T15:55:32.748Z,93.11
2022-12-31T15:58:05.214Z,92.97
2022-12-31T16:00:51.012Z,93.29
2022-12-31T16:03:24.298Z,93.52
2022-12-31T16:05:52.196Z,94.51
2022-12-31T16:08:21.874Z,95.60
2022-12-31T16:10:48.885Z,95.46
2022-12-31T16:13:21.803Z,94.86
2022-12-31T16:16:04.679Z,95.58
2022-12-31T16:18:39.480Z,94.93
2022-12-31T16:21:06.848Z,95.28
2022-12-31T16:23:38.776Z,95.96
2022-12-31T16:26:11.052Z,95.62
2022-12-31T16:28:37.946Z,95.83
2022-12-31T16:31:08.508Z,96.00
2022-12-31T16:33:35.190Z,96.47
2022-12-31T16:36:02.161Z,97.07
2022-12-31T16:38:37.174Z,97.86
2022-12-31T16:41:16.630Z,97.85
2022-12-31T16:43:43.762Z,98.00
2022-12-31T16:46:21.552Z,98.05
2022-12-31T16:48:57.085Z,97.18
2022-12-31T16:51:27.430Z,97.64
2022-12-31T16:53:54.889Z,96.76
2022-12-31T16:56:33.170Z,97.18
2022-12-31T16:59:04.901Z,97.33
2022-12-31T17:01:34.221Z,97.11
2022-12-31T17:04:05.070Z,97.26
2022-12-31T17:06:33.534Z,97.89
2022-12-31T17:09:15.243Z,98.16
2022-12-31T17:11:54.946Z,97.40
2022-12-31T17:14:28.767Z,97.61
2022-12-31T17:17:03.597Z,98.42
2022-12-31T17:19:49.401Z,98.09
2022-12-31T17:22:37.071Z,98.74
2022-12-31T17:25:05.750Z,98.85
2022-12-31T17:27:33.266Z,98.03
2022-12-31T17:30:27.596Z,99.21
2022-12-31T17:33:13.235Z,99.86
2022-12-31T17:35:42.430Z,100.00
2022-12-31T17:38:21.087Z,100.00
2022-12-31T17:40:53.612Z,100.00
2022-12-31T17:43:22.621Z,100.00
2022-12-31T17:45:53.361Z,99.61
2022-12-31T17:48:23.032Z,99.94
2022-12-31T17:50:53.729Z,100.00
2022-12-31T17:53:21.058Z,100.00
2022-12-31T17:55:51.119Z,100.00
2022-12-31T17:58:31.829Z,99.51
2022-12-31T18:00:59.388Z,98.72
2022-12-31T18:03:26.129Z,98.62
2022-12-31T18:05:52.777Z,99.57
2022-12-31T18:08:19.357Z,100.00
2022-12-31T18:10:46.189Z,100.00
2022-12-31T18:13:20.121Z,100.00
2022-12-31T18:15:46.968Z,100.00
2022-12-31T18:18:25.476Z,100.00
2022-12-31T18:21:04.490Z,100.00
2022-12-31T18:23:35.200Z,100.00
2022-12-31T18:26:01.815Z,100.00
2022-12-31T18:28:28.481Z,100.00
2022-12-31T18:30:55.242Z,100.00
2022-12-31T18:33:26.851Z,100.00
2022-12-31T18:36:10.282Z,100.00
2022-12-31T18:38:37.285Z,100.00
2022-12-31T18:41:04.414Z,100.00
2022-12-31T18:43:31.145Z,100.00
2022-12-31T18:45:58.143Z,100.00
2022-12-31T18:48:24.991Z,100.00
2022-12-31T18:50:51.683Z,100.00
2022-12-31T18:53:22.923Z,100.00
2022-12-31T18:55:52.654Z,100.00
2022-12-31T18:58:19.820Z,100.00
2022-12-31T19:00:47.835Z,100.00
2022-12-31T19:03:22.779Z,100.00
2022-12-31T19:05:52.025Z,100.00
2022-12-31T19:08:20.625Z,100.00
2022-12-31T19:10:49.366Z,100.00
2022-12-31T19:13:18.308Z,100.00
2022-12-31T19:15:48.354Z,100.00
2022-12-31T19:18:15.159Z,100.00
2022-12-31T19:20:41.798Z,100.00
2022-12-31T19:23:20.515Z,100.00
2022-12-31T19:25:48.267Z,100.00
2022-12-31T19:28:17.642Z,100.00
2022-12-31T19:30:44.924Z,100.00
2022-12-31T19:33:12.135Z,100.00
2022-12-31T19:35:39.880Z,100.00
2022-12-31T19:38:16.870Z,100.00
2022-12-31T19:40:43.554Z,100.00
2022-12-31T19:43:15.340Z,100.00
2022-12-31T19:45:43.155Z,100.00
2022-12-31T19:48:15.748Z,100.00
2022-12-31T19:50:45.856Z,100.00
2022-12-31T19:53:15.621Z,100.00
2022-12-31T19:55:42.420Z,100.00
2022-12-31T19:58:16.895Z,100.00
2022-12-31T20:00:47.954Z,100.00
2022-12-31T20:03:18.434Z,100.00
2022-12-31T20:05:45.955Z,100.00
2022-12-31T20:08:14.561Z,100.00
2022-12-31T20:10:41.305Z,100.00
2022-12-31T20:13:07.980Z,100.00
2022-12-31T20:15:34.588Z,100.00
2022-12-31T20:18:01.191Z,100.00
2022-12-31T20:20:29.234Z,100.00
2022-12-31T20:22:58.929Z,100.00
2022-12-31T20:25:26.220Z,100.00
2022-12-31T20:27:54.771Z,100.00
2022-12-31T20:30:23.062Z,100.00
2022-12-31T20:32:52.584Z,100.00
2022-12-31T20:35:19.762Z,100.00
2022-12-31T20:37:46.596Z,100.00
2022-12-31T20:40:14.345Z,100.00
2022-12-31T20:42:41.494Z,100.00
2022-12-31T20:45:11.185Z,100.00
2022-12-31T20:47:38.195Z,100.00
2022-12-31T20:50:12.943Z,100.00
2022-12-31T20:52:39.757Z,100.00
2022-12-31T20:55:06.800Z,100.00
2022-12-31T20:57:34.140Z,100.00
2022-12-31T21:00:01.259Z,100.00
2022-12-31T21:02:40.961Z,100.00
2022-12-31T21:05:09.096Z,100.00
2022-12-31T21:07:35.838Z,100.00
2022-12-31T21:10:02.453Z,100.00
2022-12-31T21:12:43.966Z,100.00
2022-12-31T21:15:12.932Z,100.00
2022-12-31T21:17:39.660Z,100.00
2022-12-31T21:20:07.037Z,100.00
2022-12-31T21:22:33.941Z,100.00
2022-12-31T21:25:01.967Z,100.00
2022-12-31T21:27:29.669Z,100.00
2022-12-31T21:32:43.634Z,100.00
2022-12-31T21:38:01.225Z,100.00
2022-12-31T21:40:28.579Z,100.00
2022-12-31T21:42:55.288Z,100.00
2022-12-31T21:45:21.925Z,100.00
2022-12-31T21:48:06.998Z,100.00
2022-12-31T21:50:34.163Z,100.00
2022-12-31T21:53:00.865Z,100.00
2022-12-31T21:55:46.014Z,100.00
2022-12-31T21:58:25.672Z,100.00
2022-12-31T22:01:11.822Z,100.00
2022-12-31T22:03:38.584Z,100.00
2022-12-31T22:06:14.174Z,100.00
2022-12-31T22:08:45.392Z,100.00
2022-12-31T22:11:13.417Z,100.00
2022-12-31T22:13:40.100Z,100.00
2022-12-31T22:16:07.876Z,100.00
2022-12-31T22:18:38.718Z,100.00
2022-12-31T22:21:20.006Z,100.00
2022-12-31T22:23:49.171Z,100.00
2022-12-31T22:26:17.594Z,100.00
2022-12-31T22:28:45.816Z,100.00
2022-12-31T22:31:18.057Z,100.00
2022-12-31T22:33:44.979Z,100.00
2022-12-31T22:36:14.685Z,100.00
2022-12-31T22:38:41.789Z,100.00
2022-12-31T22:41:17.954Z,100.00
2022-12-31T22:43:48.098Z,100.00
2022-12-31T22:46:29.631Z,100.00
2022-12-31T22:49:00.618Z,100.00
2022-12-31T22:51:55.217Z,100.00
2022-12-31T22:54:14.704Z,100.00
2022-12-31T22:56:41.468Z,100.00
2022-12-31T22:59:08.288Z,100.00
2022-12-31T23:01:35.118Z,100.00
2022-12-31T23:04:01.854Z,100.00
2022-12-31T23:06:29.162Z,100.00
2022-12-31T23:09:15.048Z,100.00
2022-12-31T23:11:43.297Z,100.00
2022-12-31T23:14:35.149Z,100.00
2022-12-31T23:17:30.950Z,100.00
2022-12-31T23:20:18.206Z,100.00
2022-12-31T23:23:04.620Z,100.00
2022-12-31T23:25:33.235Z,100.00
2022-12-31T23:27:59.915Z,100.00
2022-12-31T23:30:26.623Z,100.00
2022-12-31T23:32:53.195Z,100.00
2022-12-31T23:35:19.799Z,100.00
2022-12-31T23:37:46.337Z,100.00
2022-12-31T23:40:20.658Z,100.00
2022-12-31T23:42:47.799Z,100.00
2022-12-31T23:45:14.488Z,100.00
2022-12-31T23:47:41.098Z,100.00
2022-12-31T23:50:08.200Z,100.00
2022-12-31T23:52:34.775Z,100.00
2022-12-31T23:55:01.315Z,100.00
2022-12-31T23:57:27.923Z,100.00
2022-12-31T23:59:54.545Z,100.00
